createdAt,value
2023-03-21T00:00:24.826Z,100075.59
2023-03-21T00:00:56.308Z,100078.03
2023-03-21T00:01:27.766Z,100070.94
2023-03-21T00:01:59.232Z,100074.50
2023-03-21T00:02:30.686Z,100070.38
2023-03-21T00:03:02.170Z,100063.31
2023-03-21T00:03:33.763Z,100070.66
2023-03-21T00:04:07.981Z,100070.13
2023-03-21T00:04:50.911Z,100069.56
2023-03-21T00:05:22.971Z,100068.75
2023-03-21T00:05:54.509Z,100066.84
2023-03-21T00:06:26.012Z,100072.59
2023-03-21T00:06:57.498Z,100067.94
2023-03-21T00:07:28.907Z,100072.28
2023-03-21T00:08:01.877Z,100063.84
2023-03-21T00:08:34.152Z,100064.94
2023-03-21T00:09:08.526Z,100068.75
2023-03-21T00:09:39.954Z,100063.84
2023-03-21T00:10:16.545Z,100064.94
2023-03-21T00:10:49.724Z,100060.28
2023-03-21T00:11:21.127Z,100064.94
2023-03-21T00:11:52.597Z,100055.69
2023-03-21T00:12:24.047Z,100062.50
2023-03-21T00:12:55.488Z,100058.66
2023-03-21T00:13:27.027Z,100068.47
2023-03-21T00:13:58.565Z,100061.94
2023-03-21T00:14:30.192Z,100056.47
2023-03-21T00:15:01.747Z,100058.38
2023-03-21T00:15:42.401Z,100061.94
2023-03-21T00:16:21.400Z,100052.94
2023-03-21T00:17:03.086Z,100055.66
2023-03-21T00:17:34.584Z,100054.56
2023-03-21T00:18:08.545Z,100051.59
2023-03-21T00:18:40.141Z,100058.94
2023-03-21T00:19:11.571Z,100047.25
2023-03-21T00:19:43.074Z,100049.97
2023-03-21T00:20:14.503Z,100047.25
2023-03-21T00:20:46.121Z,100041.78
2023-03-21T00:22:09.187Z,100050.50
2023-03-21T00:22:40.787Z,100053.22
2023-03-21T00:23:12.283Z,100043.13
2023-03-21T00:23:43.889Z,100040.69
2023-03-21T00:24:15.293Z,100039.63
2023-03-21T00:24:46.685Z,100047.25
2023-03-21T00:25:18.108Z,100056.75
2023-03-21T00:25:49.584Z,100049.97
2023-03-21T00:26:20.968Z,100041.50
2023-03-21T00:26:53.031Z,100046.13
2023-03-21T00:27:45.287Z,100048.88
2023-03-21T00:28:16.080Z,100047.75
2023-03-21T00:28:47.808Z,100048.06
2023-03-21T00:29:19.281Z,100043.13
2023-03-21T00:29:50.836Z,100047.75
2023-03-21T00:30:22.280Z,100046.94
2023-03-21T00:30:53.801Z,100050.25
2023-03-21T00:31:25.227Z,100042.59
2023-03-21T00:31:56.771Z,100039.06
2023-03-21T00:32:28.171Z,100045.31
2023-03-21T00:33:03.551Z,100041.22
2023-03-21T00:33:37.880Z,100037.38
2023-03-21T00:34:54.722Z,100037.69
2023-03-21T00:36:23.122Z,100036.34
2023-03-21T00:36:54.598Z,100041.78
2023-03-21T00:37:26.204Z,100037.16
2023-03-21T00:37:57.626Z,100039.59
2023-03-21T00:38:29.122Z,100037.69
2023-03-21T00:39:00.507Z,100041.22
2023-03-21T00:39:32.358Z,100040.94
2023-03-21T00:40:04.339Z,100033.03
2023-03-21T00:40:40.845Z,100037.38
2023-03-21T00:41:35.173Z,100036.56
2023-03-21T00:42:11.493Z,100037.16
2023-03-21T00:42:42.909Z,100035.25
2023-03-21T00:43:14.410Z,100038.78
2023-03-21T00:43:45.807Z,100036.56
2023-03-21T00:44:17.339Z,100039.03
2023-03-21T00:44:48.915Z,100036.56
2023-03-21T00:45:20.384Z,100040.69
2023-03-21T00:45:51.769Z,100034.94
2023-03-21T00:46:23.518Z,100030.59
2023-03-21T00:47:06.612Z,100028.41
2023-03-21T00:47:38.932Z,100036.88
2023-03-21T00:48:10.518Z,100027.34
2023-03-21T00:48:41.969Z,100028.16
2023-03-21T00:49:13.380Z,100030.88
2023-03-21T00:49:44.880Z,100027.34
2023-03-21T00:50:16.331Z,100028.16
2023-03-21T00:50:47.844Z,100028.16
2023-03-21T00:51:19.308Z,100033.59
2023-03-21T00:51:50.749Z,100028.97
2023-03-21T00:52:34.206Z,100025.16
2023-03-21T00:53:11.516Z,100027.31
2023-03-21T00:53:43.033Z,100017.50
2023-03-21T00:54:14.446Z,100024.88
2023-03-21T00:54:45.888Z,100022.13
2023-03-21T00:55:17.384Z,100021.03
2023-03-21T00:55:48.838Z,100021.84
2023-03-21T00:56:20.325Z,100012.84
2023-03-21T00:56:51.814Z,100021.03
2023-03-21T00:57:37.509Z,100019.41
2023-03-21T00:58:09.913Z,100007.13
2023-03-21T00:58:41.333Z,100014.50
2023-03-21T00:59:12.839Z,100024.06
2023-03-21T00:59:44.304Z,100015.88
2023-03-21T01:00:15.749Z,100015.06
2023-03-21T01:00:47.351Z,100011.53
2023-03-21T01:01:18.805Z,100011.53
2023-03-21T01:01:50.309Z,100010.72
2023-03-21T01:02:21.811Z,100013.72
2023-03-21T01:03:00.161Z,100011.81
2023-03-21T01:03:32.897Z,100013.44
2023-03-21T01:04:04.447Z,100014.25
2023-03-21T01:04:35.858Z,100015.63
2023-03-21T01:05:07.292Z,100013.44
2023-03-21T01:05:39.068Z,100013.44
2023-03-21T01:06:10.725Z,100008.50
2023-03-21T01:06:42.201Z,100002.53
2023-03-21T01:07:13.688Z,100007.69
2023-03-21T01:07:45.123Z,100000.34
2023-03-21T01:08:26.642Z,100008.22
2023-03-21T01:09:00.968Z,100008.50
2023-03-21T01:09:32.376Z,100007.97
2023-03-21T01:10:03.833Z,99999.81
2023-03-21T01:10:35.272Z,100007.41
2023-03-21T01:11:06.761Z,100009.59
2023-03-21T01:11:38.262Z,100008.50
2023-03-21T01:12:09.740Z,100004.97
2023-03-21T01:12:41.171Z,100000.34
2023-03-21T01:13:12.648Z,100004.97
2023-03-21T01:13:54.628Z,100005.81
2023-03-21T01:14:31.017Z,100011.81
2023-03-21T01:15:02.404Z,100010.94
2023-03-21T01:15:33.793Z,100003.06
2023-03-21T01:16:05.408Z,99999.22
2023-03-21T01:16:36.904Z,100001.97
2023-03-21T01:17:08.483Z,100001.66
2023-03-21T01:17:40.170Z,100001.66
2023-03-21T01:18:11.567Z,99994.88
2023-03-21T01:18:43.086Z,100001.16
2023-03-21T01:19:24.973Z,99998.41
2023-03-21T01:19:57.911Z,100000.34
2023-03-21T01:20:29.471Z,100003.06
2023-03-21T01:21:00.928Z,100005.25
2023-03-21T01:21:32.478Z,99999.00
2023-03-21T01:22:03.920Z,100001.72
2023-03-21T01:22:35.567Z,99994.34
2023-03-21T01:23:07.077Z,99996.25
2023-03-21T01:23:38.588Z,99994.34
2023-03-21T01:24:09.991Z,100000.34
2023-03-21T01:24:52.436Z,99995.97
2023-03-21T01:25:26.738Z,99998.72
2023-03-21T01:25:58.184Z,99996.50
2023-03-21T01:26:29.875Z,99993.25
2023-03-21T01:27:01.505Z,99992.72
2023-03-21T01:27:32.935Z,99997.91
2023-03-21T01:28:04.393Z,100001.72
2023-03-21T01:28:35.986Z,99994.63
2023-03-21T01:29:07.425Z,99991.63
2023-03-21T01:29:38.906Z,99993.81
2023-03-21T01:30:19.078Z,99993.81
2023-03-21T01:30:51.810Z,100000.91
2023-03-21T01:31:23.282Z,99985.38
2023-03-21T01:31:54.810Z,99994.34
2023-03-21T01:32:26.304Z,99993.78
2023-03-21T01:32:57.763Z,99990.53
2023-03-21T01:33:29.277Z,99990.81
2023-03-21T01:34:00.718Z,99993.81
2023-03-21T01:34:32.165Z,99989.72
2023-03-21T01:35:03.610Z,99991.34
2023-03-21T01:35:47.970Z,99988.38
2023-03-21T01:36:23.542Z,99985.94
2023-03-21T01:36:55.361Z,99992.72
2023-03-21T01:37:26.801Z,99991.91
2023-03-21T01:37:58.200Z,99993.25
2023-03-21T01:38:29.693Z,99986.19
2023-03-21T01:39:01.181Z,99988.09
2023-03-21T01:39:32.595Z,99986.75
2023-03-21T01:40:03.995Z,99988.38
2023-03-21T01:40:35.405Z,99988.91
2023-03-21T01:41:18.582Z,99991.63
2023-03-21T01:41:50.716Z,99994.63
2023-03-21T01:42:22.265Z,99986.19
2023-03-21T01:42:53.653Z,99985.06
2023-03-21T01:43:25.482Z,99989.72
2023-03-21T01:43:56.974Z,99989.72
2023-03-21T01:44:28.496Z,99988.63
2023-03-21T01:44:59.999Z,99983.16
2023-03-21T01:45:31.470Z,99986.19
2023-03-21T01:46:02.925Z,99988.09
2023-03-21T01:46:45.346Z,99978.28
2023-03-21T01:47:20.982Z,99989.19
2023-03-21T01:47:52.461Z,99980.44
2023-03-21T01:48:23.910Z,99985.91
2023-03-21T01:48:55.366Z,99979.34
2023-03-21T01:49:26.895Z,99978.53
2023-03-21T01:49:58.332Z,99981.53
2023-03-21T01:50:29.862Z,99981.53
2023-03-21T01:51:01.259Z,99981.00
2023-03-21T01:51:32.777Z,99982.94
2023-03-21T01:52:12.153Z,99979.09
2023-03-21T01:52:45.545Z,99980.44
2023-03-21T01:53:17.012Z,99982.63
2023-03-21T01:53:48.407Z,99979.09
2023-03-21T01:54:19.884Z,99979.09
2023-03-21T01:54:51.349Z,99979.91
2023-03-21T01:55:22.797Z,99984.56
2023-03-21T01:55:54.242Z,99974.75
2023-03-21T01:56:25.642Z,99984.56
2023-03-21T01:56:57.109Z,99982.94
2023-03-21T01:57:35.502Z,99981.81
2023-03-21T01:58:12.603Z,99975.56
2023-03-21T01:58:44.026Z,99974.75
2023-03-21T01:59:15.418Z,99979.09
2023-03-21T01:59:46.957Z,99978.56
2023-03-21T02:00:18.409Z,99978.56
2023-03-21T02:00:49.817Z,99979.38
2023-03-21T02:01:21.334Z,99972.03
2023-03-21T02:01:52.756Z,99977.47
2023-03-21T02:02:24.190Z,99972.03
2023-03-21T02:03:06.113Z,99978.28
2023-03-21T02:03:42.846Z,99972.84
2023-03-21T02:04:14.444Z,99970.63
2023-03-21T02:04:45.948Z,99969.81
2023-03-21T02:05:17.347Z,99975.28
2023-03-21T02:05:48.757Z,99975.56
2023-03-21T02:06:20.199Z,99973.38
2023-03-21T02:06:51.704Z,99968.19
2023-03-21T02:07:23.133Z,99969.00
2023-03-21T02:07:54.616Z,99974.47
2023-03-21T02:08:38.330Z,99967.38
2023-03-21T02:09:10.909Z,99966.81
2023-03-21T02:09:42.315Z,99963.28
2023-03-21T02:10:13.883Z,99969.25
2023-03-21T02:10:45.302Z,99964.91
2023-03-21T02:11:16.756Z,99966.81
2023-03-21T02:11:48.187Z,99966.00
2023-03-21T02:12:19.585Z,99963.84
2023-03-21T02:12:50.973Z,99964.38
2023-03-21T02:13:22.378Z,99960.84
2023-03-21T02:14:04.297Z,99955.38
2023-03-21T02:14:37.545Z,99961.94
2023-03-21T02:15:08.996Z,99967.66
2023-03-21T02:15:40.473Z,99960.31
2023-03-21T02:16:11.869Z,99957.28
2023-03-21T02:16:43.331Z,99960.03
2023-03-21T02:17:14.739Z,99958.63
2023-03-21T02:17:46.285Z,99963.50
2023-03-21T02:18:17.738Z,99957.53
2023-03-21T02:18:49.282Z,99953.72
2023-03-21T02:19:29.593Z,99959.97
2023-03-21T02:20:04.424Z,99954.00
2023-03-21T02:20:35.847Z,99954.00
2023-03-21T02:21:07.381Z,99959.44
2023-03-21T02:21:38.807Z,99955.09
2023-03-21T02:22:10.196Z,99958.63
2023-03-21T02:22:41.731Z,99954.56
2023-03-21T02:23:13.177Z,99947.22
2023-03-21T02:23:44.731Z,99950.75
2023-03-21T02:24:16.157Z,99954.00
2023-03-21T02:24:54.572Z,99944.72
2023-03-21T02:25:30.893Z,99953.75
2023-03-21T02:26:02.321Z,99947.22
2023-03-21T02:26:41.953Z,99954.28
2023-03-21T02:27:14.355Z,99954.28
2023-03-21T02:27:45.987Z,99946.91
2023-03-21T02:28:17.373Z,99952.91
2023-03-21T02:28:48.805Z,99950.97
2023-03-21T02:29:20.257Z,99950.16
2023-03-21T02:29:51.677Z,99946.34
2023-03-21T02:30:29.407Z,99953.19
2023-03-21T02:31:11.504Z,99943.63
2023-03-21T02:31:43.027Z,99945.81
2023-03-21T02:32:22.690Z,99948.53
2023-03-21T02:32:59.720Z,99941.19
2023-03-21T02:33:31.206Z,99941.19
2023-03-21T02:34:02.615Z,99950.97
2023-03-21T02:34:34.037Z,99943.63
2023-03-21T02:35:05.484Z,99941.19
2023-03-21T02:35:41.509Z,99944.72
2023-03-21T02:36:15.617Z,99948.03
2023-03-21T02:36:47.242Z,99948.53
2023-03-21T02:37:18.679Z,99948.53
2023-03-21T02:37:58.591Z,99940.38
2023-03-21T02:38:31.703Z,99936.81
2023-03-21T02:39:03.216Z,99936.03
2023-03-21T02:39:34.700Z,99939.56
2023-03-21T02:40:06.102Z,99940.09
2023-03-21T02:40:37.708Z,99942.00
2023-03-21T02:41:18.016Z,99939.84
2023-03-21T02:41:50.513Z,99942.28
2023-03-21T02:42:21.926Z,99942.00
2023-03-21T02:42:59.965Z,99935.72
2023-03-21T02:43:32.524Z,99942.56
2023-03-21T02:44:03.920Z,99944.19
2023-03-21T02:44:35.327Z,99942.34
2023-03-21T02:45:06.886Z,99939.56
2023-03-21T02:45:38.270Z,99938.75
2023-03-21T02:46:09.802Z,99939.56
2023-03-21T02:46:47.081Z,99943.09
2023-03-21T02:47:20.728Z,99938.16
2023-03-21T02:47:52.191Z,99940.91
2023-03-21T02:48:29.244Z,99942.28
2023-03-21T02:49:04.724Z,99942.56
2023-03-21T02:49:36.204Z,99943.38
2023-03-21T02:50:07.622Z,99938.75
2023-03-21T02:50:39.315Z,99942.28
2023-03-21T02:51:10.861Z,99945.81
2023-03-21T02:51:42.324Z,99940.66
2023-03-21T02:52:18.740Z,99942.56
2023-03-21T02:52:57.220Z,99944.19
2023-03-21T02:53:28.641Z,99938.75
2023-03-21T02:54:26.149Z,99945.00
2023-03-21T02:54:51.604Z,99938.75
2023-03-21T02:55:23.045Z,99938.75
2023-03-21T02:55:54.432Z,99942.28
2023-03-21T02:56:25.877Z,99944.19
2023-03-21T02:56:57.422Z,99941.19
2023-03-21T02:57:40.034Z,99946.09
2023-03-21T02:58:13.881Z,99941.19
2023-03-21T02:58:45.455Z,99941.19
2023-03-21T02:59:16.875Z,99946.34
2023-03-21T02:59:54.563Z,99945.53
2023-03-21T03:00:29.904Z,99945.81
2023-03-21T03:01:01.479Z,99940.09
2023-03-21T03:01:32.990Z,99941.19
2023-03-21T03:02:04.699Z,99942.00
2023-03-21T03:02:36.174Z,99945.81
2023-03-21T03:03:10.540Z,99949.34
2023-03-21T03:03:44.114Z,99946.34
2023-03-21T03:04:15.654Z,99945.81
2023-03-21T03:04:47.212Z,99949.06
2023-03-21T03:05:22.164Z,99947.44
2023-03-21T03:05:53.682Z,99944.19
2023-03-21T03:06:25.094Z,99942.00
2023-03-21T03:06:56.494Z,99942.81
2023-03-21T03:07:27.928Z,99935.19
2023-03-21T03:07:59.390Z,99942.00
2023-03-21T03:08:41.207Z,99937.34
2023-03-21T03:09:21.482Z,99942.28
2023-03-21T03:09:53.013Z,99937.13
2023-03-21T03:10:24.528Z,99938.47
2023-03-21T03:10:55.978Z,99937.34
2023-03-21T03:11:27.434Z,99935.72
2023-03-21T03:11:59.001Z,99940.91
2023-03-21T03:12:30.358Z,99939.78
2023-03-21T03:13:01.779Z,99938.75
2023-03-21T03:13:33.205Z,99939.28
2023-03-21T03:14:25.098Z,99938.16
2023-03-21T03:15:03.065Z,99933.28
2023-03-21T03:15:35.614Z,99932.47
2023-03-21T03:16:07.128Z,99934.63
2023-03-21T03:16:38.584Z,99936.53
2023-03-21T03:17:10.059Z,99932.19
2023-03-21T03:17:41.579Z,99936.53
2023-03-21T03:18:13.100Z,99932.19
2023-03-21T03:18:44.689Z,99936.81
2023-03-21T03:19:16.292Z,99934.63
2023-03-21T03:19:50.556Z,99932.19
2023-03-21T03:20:22.541Z,99929.47
2023-03-21T03:20:54.015Z,99933.56
2023-03-21T03:21:25.551Z,99932.78
2023-03-21T03:21:57.009Z,99932.78
2023-03-21T03:22:28.546Z,99933.88
2023-03-21T03:22:59.951Z,99934.69
2023-03-21T03:23:31.400Z,99937.94
2023-03-21T03:24:02.911Z,99932.47
2023-03-21T03:24:34.336Z,99931.63
2023-03-21T03:25:18.463Z,99935.72
2023-03-21T03:25:52.632Z,99932.72
2023-03-21T03:26:24.219Z,99934.34
2023-03-21T03:26:55.743Z,99934.91
2023-03-21T03:27:27.177Z,99932.47
2023-03-21T03:27:58.560Z,99931.66
2023-03-21T03:28:30.104Z,99934.09
2023-03-21T03:29:01.553Z,99930.56
2023-03-21T03:29:33.090Z,99932.19
2023-03-21T03:30:04.505Z,99936.53
2023-03-21T03:30:43.381Z,99932.72
2023-03-21T03:31:20.787Z,99933.00
2023-03-21T03:31:52.335Z,99935.50
2023-03-21T03:32:23.735Z,99933.28
2023-03-21T03:32:55.145Z,99925.94
2023-03-21T03:33:26.586Z,99930.28
2023-03-21T03:33:58.053Z,99928.88
2023-03-21T03:34:29.460Z,99934.34
2023-03-21T03:35:00.832Z,99921.00
2023-03-21T03:35:32.438Z,99922.91
2023-03-21T03:36:06.517Z,99928.88
2023-03-21T03:36:38.602Z,99925.63
2023-03-21T03:37:10.060Z,99923.44
2023-03-21T03:37:41.528Z,99924.81
2023-03-21T03:38:12.951Z,99924.53
2023-03-21T03:38:44.384Z,99926.44
2023-03-21T03:39:15.780Z,99929.69
2023-03-21T03:39:47.177Z,99924.31
2023-03-21T03:40:18.686Z,99924.53
2023-03-21T03:40:50.277Z,99919.09
2023-03-21T03:41:21.825Z,99924.53
2023-03-21T03:42:21.788Z,99930.28
2023-03-21T03:42:44.749Z,99918.81
2023-03-21T03:43:16.200Z,99925.88
2023-03-21T03:43:47.787Z,99919.63
2023-03-21T03:44:19.223Z,99922.63
2023-03-21T03:44:50.791Z,99924.53
2023-03-21T03:45:22.359Z,99925.06
2023-03-21T03:45:53.833Z,99927.78
2023-03-21T03:46:25.367Z,99921.75
2023-03-21T03:46:57.021Z,99921.25
2023-03-21T03:47:33.772Z,99922.34
2023-03-21T03:48:07.622Z,99925.34
2023-03-21T03:48:39.106Z,99923.44
2023-03-21T03:49:10.503Z,99923.44
2023-03-21T03:49:42.030Z,99924.25
2023-03-21T03:50:13.485Z,99921.25
2023-03-21T03:50:45.009Z,99920.72
2023-03-21T03:51:16.433Z,99924.25
2023-03-21T03:51:47.870Z,99918.00
2023-03-21T03:52:19.493Z,99918.00
2023-03-21T03:52:57.043Z,99920.44
2023-03-21T03:53:29.128Z,99922.34
2023-03-21T03:54:00.553Z,99910.34
2023-03-21T03:54:31.986Z,99919.63
2023-03-21T03:55:03.456Z,99918.22
2023-03-21T03:55:34.908Z,99913.06
2023-03-21T03:56:06.468Z,99916.31
2023-03-21T03:56:37.924Z,99918.00
2023-03-21T03:57:09.459Z,99907.91
2023-03-21T03:57:40.978Z,99913.88
2023-03-21T03:58:21.660Z,99917.69
2023-03-21T03:58:54.550Z,99909.53
2023-03-21T03:59:25.929Z,99910.63
2023-03-21T03:59:57.359Z,99910.34
2023-03-21T04:00:28.905Z,99914.16
2023-03-21T04:01:00.337Z,99915.78
2023-03-21T04:01:31.865Z,99916.88
2023-03-21T04:02:03.427Z,99915.25
2023-03-21T04:02:34.991Z,99916.38
2023-03-21T04:03:06.570Z,99912.25
2023-03-21T04:03:48.494Z,99916.38
2023-03-21T04:04:21.972Z,99910.38
2023-03-21T04:04:53.446Z,99922.38
2023-03-21T04:05:25.008Z,99920.47
2023-03-21T04:05:56.402Z,99917.75
2023-03-21T04:06:27.933Z,99907.38
2023-03-21T04:06:59.365Z,99916.66
2023-03-21T04:07:30.793Z,99914.22
2023-03-21T04:08:02.351Z,99916.41
2023-03-21T04:08:33.839Z,99912.88
2023-03-21T04:09:13.597Z,99905.50
2023-03-21T04:09:50.502Z,99909.88
2023-03-21T04:10:21.981Z,99903.31
2023-03-21T04:10:53.664Z,99903.31
2023-03-21T04:11:26.478Z,99906.84
2023-03-21T04:11:57.914Z,99901.97
2023-03-21T04:12:29.433Z,99902.78
2023-03-21T04:13:00.922Z,99898.44
2023-03-21T04:13:32.458Z,99900.34
2023-03-21T04:14:03.912Z,99897.06
2023-03-21T04:14:43.962Z,99896.75
2023-03-21T04:15:16.917Z,99899.19
2023-03-21T04:15:48.364Z,99894.84
2023-03-21T04:16:19.902Z,99895.38
2023-03-21T04:16:51.383Z,99897.56
2023-03-21T04:17:22.771Z,99895.13
2023-03-21T04:17:54.183Z,99900.59
2023-03-21T04:18:25.797Z,99899.19
2023-03-21T04:18:57.274Z,99895.38
2023-03-21T04:19:28.827Z,99897.28
2023-03-21T04:20:11.040Z,99892.94
2023-03-21T04:20:44.831Z,99889.41
2023-03-21T04:21:16.367Z,99897.28
2023-03-21T04:21:47.841Z,99895.66
2023-03-21T04:22:19.268Z,99897.28
2023-03-21T04:22:50.676Z,99888.28
2023-03-21T04:23:22.141Z,99892.94
2023-03-21T04:23:53.663Z,99890.22
2023-03-21T04:24:25.103Z,99894.03
2023-03-21T04:24:56.575Z,99888.59
2023-03-21T04:25:33.723Z,99894.84
2023-03-21T04:26:05.819Z,99891.84
2023-03-21T04:26:37.281Z,99892.13
2023-03-21T04:27:08.677Z,99889.69
2023-03-21T04:27:40.115Z,99888.88
2023-03-21T04:28:11.530Z,99891.06
2023-03-21T04:28:43.033Z,99889.69
2023-03-21T04:29:14.410Z,99890.50
2023-03-21T04:29:45.804Z,99886.97
2023-03-21T04:30:17.342Z,99892.13
2023-03-21T04:31:00.804Z,99892.13
2023-03-21T04:31:33.661Z,99890.22
2023-03-21T04:32:05.523Z,99892.94
2023-03-21T04:32:37.045Z,99891.88
2023-03-21T04:33:08.550Z,99892.41
2023-03-21T04:33:39.970Z,99896.75
2023-03-21T04:34:11.423Z,99890.22
2023-03-21T04:34:42.815Z,99889.09
2023-03-21T04:35:14.247Z,99891.31
2023-03-21T04:35:45.734Z,99892.94
2023-03-21T04:36:17.182Z,99884.75
2023-03-21T04:36:48.702Z,99892.13
2023-03-21T04:37:20.178Z,99888.06
2023-03-21T04:37:51.885Z,99890.25
2023-03-21T04:38:23.342Z,99892.19
2023-03-21T04:38:54.878Z,99891.88
2023-03-21T04:39:26.299Z,99893.81
2023-03-21T04:39:57.711Z,99892.19
2023-03-21T04:40:29.225Z,99885.91
2023-03-21T04:41:00.690Z,99892.19
2023-03-21T04:41:32.185Z,99893.50
2023-03-21T04:42:03.723Z,99889.16
2023-03-21T04:42:35.136Z,99888.63
2023-03-21T04:43:06.683Z,99880.97
2023-03-21T04:43:38.128Z,99886.44
2023-03-21T04:44:09.523Z,99884.53
2023-03-21T04:44:40.953Z,99885.34
2023-03-21T04:45:12.446Z,99883.41
2023-03-21T04:45:43.943Z,99883.41
2023-03-21T04:46:15.481Z,99886.44
2023-03-21T04:46:46.987Z,99880.97
2023-03-21T04:47:18.460Z,99877.44
2023-03-21T04:47:49.968Z,99877.97
2023-03-21T04:48:21.432Z,99878.56
2023-03-21T04:48:52.837Z,99879.34
2023-03-21T04:49:24.307Z,99876.63
2023-03-21T04:49:55.797Z,99878.78
2023-03-21T04:50:27.239Z,99874.72
2023-03-21T04:50:58.708Z,99878.56
2023-03-21T04:51:30.107Z,99877.16
2023-03-21T04:52:01.692Z,99877.16
2023-03-21T04:52:33.074Z,99875.25
2023-03-21T04:53:04.579Z,99878.78
2023-03-21T04:53:36.012Z,99874.72
2023-03-21T04:54:38.587Z,99863.81
2023-03-21T04:55:09.994Z,99876.63
2023-03-21T04:55:41.417Z,99872.00
2023-03-21T04:56:12.891Z,99874.19
2023-03-21T04:56:44.275Z,99876.63
2023-03-21T04:57:15.885Z,99861.38
2023-03-21T04:57:47.284Z,99869.56
2023-03-21T04:58:18.745Z,99873.38
2023-03-21T04:58:50.186Z,99865.72
2023-03-21T04:59:21.617Z,99874.19
2023-03-21T04:59:53.139Z,99867.66
2023-03-21T05:00:24.576Z,99865.72
2023-03-21T05:00:56.340Z,99863.28
2023-03-21T05:01:27.891Z,99860.56
2023-03-21T05:01:59.354Z,99868.47
2023-03-21T05:02:30.850Z,99858.66
2023-03-21T05:03:02.419Z,99865.44
2023-03-21T05:03:33.942Z,99864.63
2023-03-21T05:04:06.448Z,99862.19
2023-03-21T05:04:37.892Z,99861.09
2023-03-21T05:05:09.320Z,99859.69
2023-03-21T05:05:40.756Z,99868.47
2023-03-21T05:06:12.187Z,99865.72
2023-03-21T05:06:43.641Z,99857.56
2023-03-21T05:07:15.040Z,99860.81
2023-03-21T05:07:46.555Z,99862.44
2023-03-21T05:08:18.038Z,99864.06
2023-03-21T05:08:49.535Z,99861.63
2023-03-21T05:09:20.947Z,99863.81
2023-03-21T05:09:52.425Z,99863.53
2023-03-21T05:10:23.856Z,99861.63
2023-03-21T05:10:55.261Z,99863.25
2023-03-21T05:11:26.825Z,99861.63
2023-03-21T05:11:58.527Z,99860.81
2023-03-21T05:12:30.014Z,99865.44
2023-03-21T05:13:01.545Z,99874.72
2023-03-21T05:13:32.989Z,99866.25
2023-03-21T05:14:04.388Z,99865.72
2023-03-21T05:14:35.896Z,99872.00
2023-03-21T05:15:07.310Z,99864.63
2023-03-21T05:15:39.096Z,99872.81
2023-03-21T05:16:10.780Z,99865.16
2023-03-21T05:16:42.224Z,99871.13
2023-03-21T05:17:13.696Z,99861.31
2023-03-21T05:17:45.203Z,99861.84
2023-03-21T05:18:16.684Z,99869.50
2023-03-21T05:18:48.267Z,99870.31
2023-03-21T05:19:19.667Z,99862.44
2023-03-21T05:19:51.204Z,99859.69
2023-03-21T05:20:22.596Z,99862.72
2023-03-21T05:20:54.151Z,99861.31
2023-03-21T05:21:25.569Z,99853.97
2023-03-21T05:21:56.981Z,99855.59
2023-03-21T05:22:28.363Z,99860.50
2023-03-21T05:22:59.841Z,99861.09
2023-03-21T05:23:31.314Z,99857.56
2023-03-21T05:24:02.738Z,99855.06
2023-03-21T05:24:34.151Z,99856.97
2023-03-21T05:25:05.565Z,99860.50
2023-03-21T05:25:37.118Z,99856.47
2023-03-21T05:26:08.641Z,99854.25
2023-03-21T05:26:40.067Z,99854.53
2023-03-21T05:27:11.514Z,99861.38
2023-03-21T05:27:42.983Z,99857.56
2023-03-21T05:28:14.574Z,99862.44
2023-03-21T05:28:45.989Z,99855.34
2023-03-21T05:29:17.428Z,99856.16
2023-03-21T05:29:48.956Z,99864.34
2023-03-21T05:30:20.535Z,99860.00
2023-03-21T05:30:51.958Z,99856.16
2023-03-21T05:31:23.402Z,99862.44
2023-03-21T05:31:54.931Z,99860.50
2023-03-21T05:32:26.370Z,99857.78
2023-03-21T05:32:57.902Z,99855.06
2023-03-21T05:33:29.450Z,99851.53
2023-03-21T05:34:01.031Z,99852.84
2023-03-21T05:34:32.447Z,99859.19
2023-03-21T05:35:03.941Z,99853.72
2023-03-21T05:35:35.704Z,99851.53
2023-03-21T05:36:07.246Z,99854.25
2023-03-21T05:36:38.753Z,99852.06
2023-03-21T05:37:10.268Z,99856.69
2023-03-21T05:37:41.724Z,99853.16
2023-03-21T05:38:13.268Z,99858.31
2023-03-21T05:38:44.722Z,99861.31
2023-03-21T05:39:16.230Z,99855.06
2023-03-21T05:39:47.638Z,99857.78
2023-03-21T05:40:19.120Z,99850.94
2023-03-21T05:40:50.608Z,99852.34
2023-03-21T05:41:21.988Z,99853.16
2023-03-21T05:41:53.394Z,99859.41
2023-03-21T05:42:24.822Z,99853.16
2023-03-21T05:42:56.250Z,99860.50
2023-03-21T05:43:27.740Z,99854.25
2023-03-21T05:43:59.519Z,99854.53
2023-03-21T05:44:30.961Z,99856.97
2023-03-21T05:45:02.413Z,99860.81
2023-03-21T05:45:33.884Z,99858.88
2023-03-21T05:46:05.387Z,99860.00
2023-03-21T05:46:36.920Z,99858.09
2023-03-21T05:47:08.405Z,99860.81
2023-03-21T05:47:39.912Z,99861.09
2023-03-21T05:48:11.476Z,99855.63
2023-03-21T05:48:42.954Z,99860.56
2023-03-21T05:49:14.412Z,99861.91
2023-03-21T05:49:45.923Z,99860.81
2023-03-21T05:50:17.358Z,99857.25
2023-03-21T05:50:48.838Z,99863.00
2023-03-21T05:51:20.244Z,99863.00
2023-03-21T05:51:51.763Z,99862.19
2023-03-21T05:52:23.235Z,99860.28
2023-03-21T05:52:54.769Z,99858.66
2023-03-21T05:53:26.178Z,99857.56
2023-03-21T05:53:57.581Z,99863.81
2023-03-21T05:54:29.280Z,99855.63
2023-03-21T05:55:00.697Z,99859.19
2023-03-21T05:55:32.367Z,99862.72
2023-03-21T05:56:03.948Z,99861.09
2023-03-21T05:56:35.419Z,99858.09
2023-03-21T05:57:07.010Z,99865.16
2023-03-21T05:57:38.511Z,99860.00
2023-03-21T05:58:10.034Z,99858.09
2023-03-21T05:58:41.498Z,99869.78
2023-03-21T05:59:12.926Z,99864.63
2023-03-21T05:59:44.565Z,99864.34
2023-03-21T06:00:15.964Z,99865.44
2023-03-21T06:00:47.512Z,99865.44
2023-03-21T06:01:18.935Z,99867.34
2023-03-21T06:01:50.456Z,99866.25
2023-03-21T06:02:21.901Z,99865.44
2023-03-21T06:02:53.460Z,99874.44
2023-03-21T06:03:24.981Z,99869.78
2023-03-21T06:03:56.540Z,99873.63
2023-03-21T06:04:28.009Z,99877.44
2023-03-21T06:04:59.542Z,99865.44
2023-03-21T06:05:30.955Z,99863.00
2023-03-21T06:06:02.326Z,99873.91
2023-03-21T06:06:33.753Z,99876.34
2023-03-21T06:07:05.199Z,99876.63
2023-03-21T06:07:36.641Z,99874.72
2023-03-21T06:08:08.058Z,99872.81
2023-03-21T06:08:39.502Z,99871.19
2023-03-21T06:09:10.994Z,99876.63
2023-03-21T06:09:42.444Z,99876.63
2023-03-21T06:10:13.895Z,99870.66
2023-03-21T06:10:45.361Z,99876.94
2023-03-21T06:11:16.860Z,99879.66
2023-03-21T06:11:48.292Z,99887.53
2023-03-21T06:12:19.854Z,99868.16
2023-03-21T06:12:51.284Z,99876.63
2023-03-21T06:13:22.680Z,99873.63
2023-03-21T06:13:54.199Z,99874.44
2023-03-21T06:14:25.650Z,99878.78
2023-03-21T06:14:57.186Z,99878.78
2023-03-21T06:15:28.672Z,99876.06
2023-03-21T06:16:00.292Z,99879.88
2023-03-21T06:16:31.720Z,99868.97
2023-03-21T06:17:03.336Z,99883.41
2023-03-21T06:17:34.750Z,99874.72
2023-03-21T06:18:06.264Z,99882.03
2023-03-21T06:18:37.739Z,99872.75
2023-03-21T06:19:09.255Z,99869.50
2023-03-21T06:19:40.711Z,99877.38
2023-03-21T06:20:12.179Z,99879.31
2023-03-21T06:20:43.571Z,99881.75
2023-03-21T06:21:15.001Z,99873.03
2023-03-21T06:21:46.426Z,99881.50
2023-03-21T06:22:17.869Z,99873.84
2023-03-21T06:22:49.316Z,99869.78